Time;durP1;ratioP1;P1;durP2;ratioP2;P2;SDS_P1;SDS_P2;PMS_P1;PMS_P2;Temp;Humidity;BMP_temperature;BMP_pressure;BME280_temperature;BME280_humidity;BME280_pressure;Samples;Min_cycle;Max_cycle;Signal;HPM_P1;HPM_P2
2024/01/28 00:01:57;;;;;;;19.77;7.93;;;-1.30;99.90;;;;;;5055327;28;20515;-63
2024/01/28 00:04:23;;;;;;;20.00;6.75;;;-1.40;99.90;;;;;;5060477;28;20029;-63
2024/01/28 00:06:48;;;;;;;23.15;7.40;;;-1.50;99.90;;;;;;5063210;28;20909;-63
2024/01/28 00:09:14;;;;;;;21.55;7.13;;;-1.60;99.90;;;;;;5060186;28;20029;-64
2024/01/28 00:11:42;;;;;;;25.45;7.32;;;-1.60;99.90;;;;;;5057273;28;20045;-64
2024/01/28 00:14:08;;;;;;;19.80;6.85;;;-1.60;99.90;;;;;;5064791;28;20052;-63
2024/01/28 00:16:34;;;;;;;17.38;6.82;;;-1.50;99.90;;;;;;5059277;28;20075;-63
2024/01/28 00:19:01;;;;;;;22.60;6.63;;;-1.40;99.90;;;;;;5059509;28;20706;-64
2024/01/28 00:21:27;;;;;;;19.70;6.78;;;-1.10;99.90;;;;;;5058856;28;20055;-64
2024/01/28 00:23:53;;;;;;;19.55;6.80;;;-1.10;99.90;;;;;;5058809;28;20026;-63
2024/01/28 00:26:20;;;;;;;16.88;5.90;;;-1.10;99.90;;;;;;5057665;28;20032;-63
2024/01/28 00:28:46;;;;;;;15.45;5.93;;;-1.20;99.90;;;;;;5054997;28;20032;-63
2024/01/28 00:31:12;;;;;;;16.23;6.38;;;-1.10;99.90;;;;;;5059251;28;20526;-63
2024/01/28 00:33:38;;;;;;;17.95;6.35;;;-1.10;99.90;;;;;;5058206;28;20392;-63
2024/01/28 00:36:04;;;;;;;19.23;6.28;;;-1.10;99.90;;;;;;5058032;28;20020;-63
2024/01/28 00:38:31;;;;;;;20.70;6.20;;;-1.20;99.90;;;;;;5055304;28;20422;-63
2024/01/28 00:41:00;;;;;;;23.02;6.40;;;-1.30;99.90;;;;;;5056032;28;20067;-63
2024/01/28 00:43:26;;;;;;;22.42;6.53;;;-1.30;99.90;;;;;;5055758;28;20033;-63
2024/01/28 00:45:52;;;;;;;22.88;6.38;;;-1.40;99.90;;;;;;5063342;28;20049;-63
2024/01/28 00:48:17;;;;;;;21.73;5.95;;;-1.50;99.90;;;;;;5058600;28;20105;-64
2024/01/28 00:50:43;;;;;;;13.98;5.20;;;-1.60;99.90;;;;;;5054603;28;20941;-63
2024/01/28 00:53:09;;;;;;;15.10;4.80;;;-1.70;99.90;;;;;;5063901;28;20074;-63
2024/01/28 00:55:34;;;;;;;17.50;5.30;;;-1.80;99.90;;;;;;5062446;28;20028;-63
2024/01/28 00:58:02;;;;;;;19.27;6.07;;;-1.80;99.90;;;;;;5060386;28;20033;-63
2024/01/28 01:00:28;;;;;;;16.02;5.63;;;-1.80;99.90;;;;;;5060836;28;20071;-63
2024/01/28 01:02:54;;;;;;;19.00;6.70;;;-1.80;99.90;;;;;;5062295;28;20025;-63
2024/01/28 01:05:19;;;;;;;19.70;6.00;;;-1.80;99.90;;;;;;5055962;28;20407;-63
2024/01/28 01:07:45;;;;;;;15.27;5.05;;;-1.70;99.90;;;;;;5063907;28;20086;-63
2024/01/28 01:10:10;;;;;;;20.35;5.82;;;-1.60;99.90;;;;;;5056519;28;20052;-63
2024/01/28 01:12:36;;;;;;;16.40;5.35;;;-1.40;99.90;;;;;;5060639;28;20041;-63
2024/01/28 01:15:03;;;;;;;15.75;3.95;;;-1.40;99.90;;;;;;5066519;28;20016;-63
2024/01/28 01:17:29;;;;;;;12.20;4.28;;;-1.30;99.90;;;;;;5062522;28;20496;-63
2024/01/28 01:19:54;;;;;;;12.60;4.28;;;-1.20;99.90;;;;;;5063928;28;20032;-65
2024/01/28 01:22:20;;;;;;;10.25;4.07;;;-1.10;99.90;;;;;;5052607;28;20463;-64
2024/01/28 01:24:46;;;;;;;15.18;4.20;;;-1.10;99.90;;;;;;5059988;28;20044;-64
2024/01/28 01:27:11;;;;;;;16.73;4.00;;;-1.00;99.90;;;;;;5059113;28;20032;-62
2024/01/28 01:29:37;;;;;;;12.00;3.58;;;-1.10;99.90;;;;;;5059387;28;20028;-62
2024/01/28 01:32:03;;;;;;;12.32;4.28;;;-1.10;99.90;;;;;;5063407;28;20617;-61
2024/01/28 01:34:29;;;;;;;12.90;3.50;;;-1.20;99.90;;;;;;5057569;28;20028;-61
2024/01/28 01:36:54;;;;;;;12.65;4.38;;;-1.20;99.90;;;;;;5056567;28;20033;-65
2024/01/28 01:39:20;;;;;;;10.73;3.72;;;-1.30;99.90;;;;;;5052595;28;20682;-63
2024/01/28 01:41:46;;;;;;;14.63;4.25;;;-1.30;99.90;;;;;;5059898;28;20136;-63
2024/01/28 01:44:12;;;;;;;14.98;4.05;;;-1.40;99.90;;;;;;5056949;28;20553;-63
2024/01/28 01:46:39;;;;;;;14.27;5.43;;;-1.40;99.90;;;;;;5054998;28;20029;-63
2024/01/28 01:49:05;;;;;;;10.98;4.10;;;-1.40;99.90;;;;;;5057383;28;20048;-63
2024/01/28 01:51:31;;;;;;;14.98;4.10;;;-1.50;99.90;;;;;;5057099;28;20139;-64
2024/01/28 01:53:57;;;;;;;20.42;4.13;;;-1.40;99.90;;;;;;5062107;28;20116;-64
2024/01/28 01:56:24;;;;;;;13.93;4.18;;;-1.40;99.90;;;;;;5065775;28;20036;-64
2024/01/28 01:58:51;;;;;;;12.45;4.03;;;-1.30;99.90;;;;;;5063537;28;20039;-63
2024/01/28 02:01:17;;;;;;;13.50;3.85;;;-1.30;99.90;;;;;;5065463;28;20056;-62
2024/01/28 02:03:43;;;;;;;15.82;3.97;;;-1.30;99.90;;;;;;5063466;28;20044;-61
2024/01/28 02:06:13;;;;;;;13.75;4.40;;;-1.40;99.90;;;;;;5062541;28;20028;-62
2024/01/28 02:08:39;;;;;;;;;;;-1.60;99.90;;;;;;5061266;28;20033;-61
2024/01/28 02:11:06;;;;;;;12.65;4.15;;;-1.60;99.90;;;;;;5066974;28;19994;-62
2024/01/28 02:13:32;;;;;;;14.27;4.15;;;-1.60;99.90;;;;;;5062889;28;20064;-63
2024/01/28 02:15:58;;;;;;;13.85;4.38;;;-1.70;99.90;;;;;;5061288;28;20109;-63
2024/01/28 02:18:24;;;;;;;12.55;4.50;;;-1.70;99.90;;;;;;5057530;28;20025;-63
2024/01/28 02:20:49;;;;;;;17.17;4.82;;;-1.70;99.90;;;;;;5061938;28;20029;-63
2024/01/28 02:23:21;;;;;;;14.85;4.43;;;-1.80;99.90;;;;;;5061741;28;20017;-63
2024/01/28 02:25:50;;;;;;;14.30;4.05;;;-1.80;99.90;;;;;;5063518;28;20029;-63
2024/01/28 02:28:16;;;;;;;10.95;3.90;;;-1.80;99.90;;;;;;5061232;28;20035;-63
2024/01/28 02:30:42;;;;;;;16.08;4.38;;;-1.80;99.90;;;;;;5061128;28;20021;-62
2024/01/28 02:33:08;;;;;;;15.35;4.57;;;-1.70;99.90;;;;;;5061282;28;20090;-63
2024/01/28 02:35:33;;;;;;;9.10;3.88;;;-1.70;99.90;;;;;;5064661;28;20070;-63
2024/01/28 02:37:59;;;;;;;12.05;3.88;;;-1.70;99.90;;;;;;5065095;28;20459;-63
2024/01/28 02:40:25;;;;;;;12.57;3.78;;;-1.70;99.90;;;;;;5063025;28;20675;-63
2024/01/28 02:42:50;;;;;;;11.63;3.65;;;-1.70;99.90;;;;;;5064948;28;20171;-63
2024/01/28 02:45:18;;;;;;;11.38;3.80;;;-1.60;99.90;;;;;;5059062;28;20020;-63
2024/01/28 02:47:44;;;;;;;12.32;4.20;;;-1.60;99.90;;;;;;5059498;28;20017;-63
2024/01/28 02:50:10;;;;;;;11.40;3.25;;;-1.60;99.90;;;;;;5057446;28;20025;-63
2024/01/28 02:52:35;;;;;;;14.32;3.70;;;-1.50;99.90;;;;;;5057264;28;20104;-63
2024/01/28 02:55:01;;;;;;;10.20;3.65;;;-1.50;99.90;;;;;;5060072;28;20604;-63
2024/01/28 02:57:27;;;;;;;12.27;3.28;;;-1.40;99.90;;;;;;5060184;28;20408;-63
2024/01/28 02:59:52;;;;;;;11.20;3.42;;;-1.30;99.90;;;;;;5063044;28;20024;-63
2024/01/28 03:02:18;;;;;;;14.30;3.53;;;-1.30;99.90;;;;;;5064964;28;20028;-63
2024/01/28 03:04:44;;;;;;;14.13;3.90;;;-1.30;99.90;;;;;;5066597;28;20021;-63
2024/01/28 03:07:10;;;;;;;10.52;3.45;;;-1.20;99.90;;;;;;5063129;28;20095;-63
2024/01/28 03:09:35;;;;;;;13.52;3.65;;;-1.20;99.90;;;;;;5065803;28;20151;-63
2024/01/28 03:12:01;;;;;;;8.63;2.88;;;-1.20;99.90;;;;;;5061140;28;20084;-63
2024/01/28 03:14:27;;;;;;;9.15;3.08;;;-1.10;99.90;;;;;;5061131;28;20121;-63
2024/01/28 03:16:53;;;;;;;8.75;2.90;;;-1.00;99.90;;;;;;5058154;28;20025;-63
2024/01/28 03:19:18;;;;;;;8.00;3.13;;;-0.90;99.90;;;;;;5057594;28;20032;-63
2024/01/28 03:21:44;;;;;;;11.55;3.25;;;-0.80;99.90;;;;;;5065589;28;20025;-63
2024/01/28 03:24:09;;;;;;;15.52;3.65;;;-0.90;99.90;;;;;;5058170;28;20152;-61
2024/01/28 03:26:35;;;;;;;8.30;3.50;;;-0.90;99.90;;;;;;5053556;28;20036;-63
2024/01/28 03:29:02;;;;;;;8.48;3.05;;;-1.00;99.90;;;;;;5059387;28;20430;-63
2024/01/28 03:31:28;;;;;;;10.45;3.53;;;-1.00;99.90;;;;;;5065761;28;20024;-63
2024/01/28 03:33:54;;;;;;;8.70;3.17;;;-1.10;99.90;;;;;;5065196;28;20032;-63
2024/01/28 03:36:19;;;;;;;11.35;3.38;;;-1.20;99.90;;;;;;5058556;28;20042;-62
2024/01/28 03:38:45;;;;;;;11.00;3.60;;;-1.30;99.90;;;;;;5061041;28;20074;-62
2024/01/28 03:41:13;;;;;;;8.40;3.20;;;-1.40;99.90;;;;;;5058004;28;20121;-62
2024/01/28 03:43:39;;;;;;;12.02;3.20;;;-1.50;99.90;;;;;;5061997;28;20456;-62
2024/01/28 03:46:07;;;;;;;12.30;3.70;;;-1.60;99.90;;;;;;5062172;28;20031;-62
2024/01/28 03:48:32;;;;;;;11.75;3.78;;;-1.60;99.90;;;;;;5072553;28;20398;-62
2024/01/28 03:50:58;;;;;;;14.43;4.00;;;-1.60;99.90;;;;;;5057656;28;20075;-62
2024/01/28 03:53:23;;;;;;;12.43;3.47;;;-1.60;99.90;;;;;;5059221;28;20538;-62
2024/01/28 03:55:49;;;;;;;11.63;3.65;;;-1.60;99.90;;;;;;5056610;28;20036;-62
2024/01/28 03:58:15;;;;;;;14.25;3.95;;;-1.60;99.90;;;;;;5058200;28;20464;-62
2024/01/28 04:00:41;;;;;;;12.38;3.50;;;-1.50;99.90;;;;;;5057998;28;20020;-63
2024/01/28 04:03:06;;;;;;;10.90;3.70;;;-1.50;99.90;;;;;;5058482;28;20031;-62
2024/01/28 04:05:32;;;;;;;8.65;3.00;;;-1.50;99.90;;;;;;5061883;28;20024;-63
2024/01/28 04:07:58;;;;;;;10.43;3.03;;;-1.60;99.90;;;;;;5058034;28;20013;-62
2024/01/28 04:10:24;;;;;;;9.85;3.28;;;-1.60;99.90;;;;;;5059704;28;20025;-62
2024/01/28 04:12:50;;;;;;;10.77;3.20;;;-1.70;99.90;;;;;;5063328;28;20055;-62
2024/01/28 04:15:15;;;;;;;11.43;3.38;;;-1.80;99.90;;;;;;5057132;28;20028;-62
2024/01/28 04:17:41;;;;;;;9.88;3.35;;;-1.80;99.90;;;;;;5067033;28;20024;-64
2024/01/28 04:20:10;;;;;;;10.25;3.20;;;-2.00;99.90;;;;;;5064437;28;20469;-62
2024/01/28 04:22:37;;;;;;;12.27;3.78;;;-2.10;99.90;;;;;;5054364;28;20029;-62
2024/01/28 04:25:03;;;;;;;9.93;3.08;;;-2.10;99.90;;;;;;5057812;28;20057;-63
2024/01/28 04:27:28;;;;;;;8.95;2.75;;;-2.10;99.90;;;;;;5059952;28;20056;-63
2024/01/28 04:29:54;;;;;;;11.55;3.20;;;-2.10;99.90;;;;;;5061597;28;20460;-63
2024/01/28 04:32:20;;;;;;;8.32;2.97;;;-2.10;99.90;;;;;;5060469;28;20028;-63
2024/01/28 04:34:45;;;;;;;12.75;3.40;;;-2.20;99.90;;;;;;5066696;28;20040;-63
2024/01/28 04:37:11;;;;;;;12.50;3.50;;;-2.20;99.90;;;;;;5064220;28;20024;-64
2024/01/28 04:39:37;;;;;;;9.68;3.17;;;-2.20;99.90;;;;;;5057735;28;20024;-63
2024/01/28 04:42:03;;;;;;;11.48;3.63;;;-2.30;99.90;;;;;;5057286;28;20093;-64
2024/01/28 04:44:29;;;;;;;9.95;3.55;;;-2.40;99.90;;;;;;5052930;28;20048;-63
2024/01/28 04:46:57;;;;;;;11.13;3.70;;;-2.50;99.90;;;;;;5054242;28;20110;-63
2024/01/28 04:49:23;;;;;;;9.10;3.10;;;-2.60;99.90;;;;;;5056374;28;20044;-63
2024/01/28 04:51:50;;;;;;;11.07;3.25;;;-2.60;99.90;;;;;;5066489;28;20473;-63
2024/01/28 04:54:16;;;;;;;10.07;3.53;;;-2.70;99.90;;;;;;5060467;28;20446;-63
2024/01/28 04:56:42;;;;;;;14.00;4.43;;;-2.70;99.90;;;;;;5061443;28;20694;-63
2024/01/28 04:59:07;;;;;;;8.60;3.20;;;-2.70;99.90;;;;;;5059166;28;20031;-63
2024/01/28 05:01:34;;;;;;;9.15;3.80;;;-2.70;99.90;;;;;;5056271;28;20527;-63
2024/01/28 05:04:04;;;;;;;10.05;3.22;;;-2.70;99.90;;;;;;5061004;28;20021;-63
2024/01/28 05:06:36;;;;;;;7.88;2.88;;;-2.80;99.90;;;;;;5052520;28;20488;-63
2024/01/28 05:09:03;;;;;;;9.07;3.13;;;-2.70;99.90;;;;;;5055670;28;20633;-63
2024/01/28 05:11:29;;;;;;;11.77;3.35;;;-2.60;99.90;;;;;;5057040;28;20059;-62
2024/01/28 05:13:55;;;;;;;11.13;2.92;;;-2.40;99.90;;;;;;5064401;28;20035;-63
2024/01/28 05:16:22;;;;;;;10.65;2.70;;;-2.30;99.90;;;;;;5063719;28;20912;-63
2024/01/28 05:18:48;;;;;;;20.73;3.17;;;-2.30;99.90;;;;;;5058912;28;20040;-63
2024/01/28 05:21:13;;;;;;;8.90;2.72;;;-2.30;99.90;;;;;;5058511;28;20426;-62
2024/01/28 05:23:39;;;;;;;12.43;3.28;;;-2.30;99.90;;;;;;5057509;28;20029;-63
2024/01/28 05:26:05;;;;;;;8.75;2.50;;;-2.40;99.90;;;;;;5057651;28;20079;-63
2024/01/28 05:28:31;;;;;;;10.93;2.80;;;-2.50;99.90;;;;;;5057115;28;20025;-64
2024/01/28 05:30:57;;;;;;;9.57;2.50;;;-2.50;99.90;;;;;;5054783;28;20473;-64
2024/01/28 05:33:22;;;;;;;8.40;2.88;;;-2.50;99.90;;;;;;5069454;28;20040;-64
2024/01/28 05:35:48;;;;;;;10.20;2.53;;;-2.40;99.90;;;;;;5055611;28;20790;-64
2024/01/28 05:38:14;;;;;;;6.15;2.08;;;-2.40;99.90;;;;;;5060401;28;20503;-64
2024/01/28 05:40:41;;;;;;;11.38;2.80;;;-2.30;99.90;;;;;;5064693;28;20060;-62
2024/01/28 05:43:07;;;;;;;10.40;2.50;;;-2.40;99.90;;;;;;5064841;28;20499;-63
2024/01/28 05:45:32;;;;;;;8.02;2.80;;;-2.40;99.90;;;;;;5060364;28;20508;-63
2024/01/28 05:48:01;;;;;;;9.68;2.53;;;-2.40;99.90;;;;;;5064020;28;20059;-63
2024/01/28 05:50:29;;;;;;;7.97;2.45;;;-2.50;99.90;;;;;;5058094;28;20020;-63
2024/01/28 05:52:54;;;;;;;8.00;2.60;;;-2.60;99.90;;;;;;5059902;28;20107;-64
2024/01/28 05:55:20;;;;;;;9.25;2.72;;;-2.60;99.90;;;;;;5063763;28;20427;-64
2024/01/28 05:57:46;;;;;;;10.38;2.50;;;-2.70;99.90;;;;;;5063769;28;20017;-64
2024/01/28 06:00:12;;;;;;;9.23;2.83;;;-2.70;99.90;;;;;;5062909;28;20558;-64
2024/01/28 06:02:38;;;;;;;10.25;2.95;;;-2.80;99.90;;;;;;5065615;28;20086;-63
2024/01/28 06:05:04;;;;;;;8.20;2.80;;;-2.80;99.90;;;;;;5068145;28;20025;-63
2024/01/28 06:07:30;;;;;;;9.48;3.00;;;-2.80;99.90;;;;;;5058701;28;20059;-63
2024/01/28 06:09:56;;;;;;;9.13;2.90;;;-2.90;99.90;;;;;;5064151;28;20056;-64
2024/01/28 06:12:22;;;;;;;9.30;3.03;;;-3.00;99.90;;;;;;5065670;28;20551;-64
2024/01/28 06:14:47;;;;;;;9.30;3.05;;;-3.00;99.90;;;;;;5055920;28;20036;-64
2024/01/28 06:17:15;;;;;;;8.68;3.25;;;-3.00;99.90;;;;;;5063428;28;20509;-64
2024/01/28 06:19:40;;;;;;;11.57;3.30;;;-3.00;99.90;;;;;;5064247;28;20033;-64
2024/01/28 06:22:06;;;;;;;10.85;3.50;;;-3.10;99.90;;;;;;5065864;28;20066;-64
2024/01/28 06:24:33;;;;;;;9.57;3.50;;;-3.10;99.90;;;;;;5066540;28;20803;-64
2024/01/28 06:26:58;;;;;;;12.70;3.25;;;-3.10;99.90;;;;;;5060562;28;20032;-64
2024/01/28 06:29:24;;;;;;;12.05;3.60;;;-3.00;99.90;;;;;;5058970;28;20029;-64
2024/01/28 06:31:50;;;;;;;10.57;3.80;;;-3.10;99.90;;;;;;5061653;28;20052;-64
2024/01/28 06:34:16;;;;;;;12.80;4.75;;;-3.10;99.90;;;;;;5067765;28;20028;-64
2024/01/28 06:36:41;;;;;;;12.18;4.43;;;-3.10;99.90;;;;;;5058504;28;20041;-64
2024/01/28 06:39:08;;;;;;;11.90;3.70;;;-3.00;99.90;;;;;;5062992;28;20116;-64
2024/01/28 06:41:34;;;;;;;13.00;4.07;;;-2.90;99.90;;;;;;5061622;28;20026;-64
2024/01/28 06:44:02;;;;;;;17.42;4.55;;;-2.80;99.90;;;;;;5064269;28;20535;-65
2024/01/28 06:46:28;;;;;;;9.90;3.50;;;-2.70;99.90;;;;;;5055006;28;20028;-65
2024/01/28 06:48:53;;;;;;;10.65;5.13;;;-2.70;99.90;;;;;;5058051;28;20024;-65
2024/01/28 06:51:19;;;;;;;8.68;3.47;;;-2.80;99.90;;;;;;5057543;28;20083;-65
2024/01/28 06:53:45;;;;;;;14.50;4.45;;;-2.90;99.90;;;;;;5061175;28;20036;-65
2024/01/28 06:56:11;;;;;;;10.80;3.85;;;-3.00;99.90;;;;;;5063106;28;20062;-65
2024/01/28 06:58:37;;;;;;;12.40;4.00;;;-3.00;99.90;;;;;;5064103;28;20021;-64
2024/01/28 07:01:03;;;;;;;11.00;3.65;;;-2.90;99.90;;;;;;5061214;28;20040;-64
2024/01/28 07:03:29;;;;;;;21.27;4.00;;;-2.90;99.90;;;;;;5063501;28;20029;-64
2024/01/28 07:05:55;;;;;;;9.85;3.22;;;-2.80;99.90;;;;;;5058902;28;20031;-64
2024/01/28 07:08:20;;;;;;;12.00;3.97;;;-2.90;99.90;;;;;;5060554;28;20059;-63
2024/01/28 07:10:46;;;;;;;10.93;3.67;;;-2.90;99.90;;;;;;5058239;28;20033;-64
2024/01/28 07:13:12;;;;;;;11.38;3.88;;;-3.00;99.90;;;;;;5063155;28;20474;-64
2024/01/28 07:15:39;;;;;;;9.93;3.78;;;-3.00;99.90;;;;;;5061193;28;20017;-64
2024/01/28 07:18:05;;;;;;;10.23;3.47;;;-3.00;99.90;;;;;;5062273;28;20464;-64
2024/01/28 07:20:31;;;;;;;11.65;5.13;;;-3.00;99.90;;;;;;5060850;28;20030;-64
2024/01/28 07:22:56;;;;;;;10.40;3.72;;;-3.00;99.90;;;;;;5056996;28;20048;-64
2024/01/28 07:25:22;;;;;;;9.35;3.38;;;-3.00;99.90;;;;;;5058470;28;20108;-64
2024/01/28 07:27:47;;;;;;;12.10;3.80;;;-3.00;99.90;;;;;;5057047;28;20053;-64
2024/01/28 07:30:13;;;;;;;10.38;3.53;;;-3.00;99.90;;;;;;5062026;28;20036;-64
2024/01/28 07:32:39;;;;;;;11.32;3.45;;;-2.90;99.90;;;;;;5059636;28;20357;-63
2024/01/28 07:35:05;;;;;;;8.50;3.28;;;-2.90;99.90;;;;;;5063854;28;20103;-63
2024/01/28 07:37:31;;;;;;;12.77;3.53;;;-2.90;99.90;;;;;;5059258;28;20086;-64
2024/01/28 07:39:56;;;;;;;11.40;2.97;;;-2.80;99.90;;;;;;5060598;28;20029;-64
2024/01/28 07:42:22;;;;;;;7.68;2.95;;;-2.70;99.90;;;;;;5060932;28;20021;-64
2024/01/28 07:44:47;;;;;;;15.88;3.15;;;-2.60;99.90;;;;;;5061555;28;20741;-63
2024/01/28 07:47:13;;;;;;;8.70;2.97;;;-2.60;99.90;;;;;;5057448;28;20025;-63
2024/01/28 07:49:39;;;;;;;9.55;3.00;;;-2.50;99.90;;;;;;5056633;28;20049;-63
2024/01/28 07:52:05;;;;;;;10.13;3.00;;;-2.40;99.90;;;;;;5059325;28;20112;-63
2024/01/28 07:54:30;;;;;;;8.95;2.80;;;-2.40;99.90;;;;;;5058397;28;20046;-63
2024/01/28 07:56:57;;;;;;;9.70;3.00;;;-2.40;99.90;;;;;;5058476;28;20025;-64
2024/01/28 07:59:23;;;;;;;9.05;2.67;;;-2.40;99.90;;;;;;5061091;28;20087;-63
2024/01/28 08:01:49;;;;;;;10.25;3.38;;;-2.40;99.90;;;;;;5057049;28;20169;-63
2024/01/28 08:04:14;;;;;;;13.05;4.43;;;-2.40;99.90;;;;;;5060842;28;20139;-64
2024/01/28 08:06:40;;;;;;;12.50;5.10;;;-2.30;99.90;;;;;;5064839;28;20033;-63
2024/01/28 08:09:05;;;;;;;12.65;4.57;;;-2.30;99.90;;;;;;5062757;28;20779;-64
2024/01/28 08:11:31;;;;;;;10.75;4.53;;;-2.30;99.90;;;;;;5064232;28;20087;-64
2024/01/28 08:13:57;;;;;;;11.88;4.43;;;-2.20;99.90;;;;;;5066943;28;20039;-65
2024/01/28 08:16:22;;;;;;;11.02;3.83;;;-2.10;99.90;;;;;;5063198;28;20024;-65
2024/01/28 08:18:48;;;;;;;11.68;4.45;;;-1.90;99.90;;;;;;5060068;28;20028;-65
2024/01/28 08:21:13;;;;;;;11.13;4.20;;;-1.80;99.90;;;;;;5062802;28;20482;-64
2024/01/28 08:23:39;;;;;;;11.75;4.13;;;-1.70;99.90;;;;;;5059318;28;20025;-64
2024/01/28 08:26:05;;;;;;;10.77;4.43;;;-1.60;99.90;;;;;;5061726;28;20033;-64
2024/01/28 08:28:31;;;;;;;12.23;4.68;;;-1.50;99.90;;;;;;5060098;28;20046;-64
2024/01/28 08:30:57;;;;;;;13.55;3.80;;;-1.40;99.90;;;;;;5064087;28;20666;-63
2024/01/28 08:33:22;;;;;;;10.68;3.92;;;-1.40;99.90;;;;;;5062320;28;20021;-64
2024/01/28 08:35:48;;;;;;;11.43;3.95;;;-1.20;99.90;;;;;;5060527;28;20681;-63
2024/01/28 08:38:13;;;;;;;10.95;4.47;;;-1.00;99.90;;;;;;5056916;28;20020;-64
2024/01/28 08:40:39;;;;;;;9.02;3.63;;;-0.90;99.90;;;;;;5060931;28;20777;-62
2024/01/28 08:43:07;;;;;;;7.72;2.70;;;-0.80;99.90;;;;;;5057194;28;20443;-63
2024/01/28 08:45:33;;;;;;;7.57;2.83;;;-0.50;99.90;;;;;;5054180;28;20025;-63
2024/01/28 08:47:59;;;;;;;12.00;3.55;;;-0.30;99.90;;;;;;5057937;28;20086;-63
2024/01/28 08:50:27;;;;;;;9.32;2.88;;;-0.10;99.90;;;;;;5056595;28;20031;-63
2024/01/28 08:52:52;;;;;;;11.77;3.33;;;0.10;99.90;;;;;;5057939;28;20052;-63
2024/01/28 08:55:18;;;;;;;7.65;2.97;;;0.20;99.90;;;;;;5060370;28;20455;-62
2024/01/28 08:57:44;;;;;;;8.90;3.33;;;0.60;99.90;;;;;;5060447;28;20035;-62
2024/01/28 09:00:11;;;;;;;8.10;2.40;;;1.30;99.90;;;;;;5065127;28;20415;-62
2024/01/28 09:02:38;;;;;;;5.97;2.15;;;2.10;99.90;;;;;;5060215;28;20111;-62
2024/01/28 09:05:05;;;;;;;8.55;2.40;;;2.90;99.90;;;;;;5058969;28;20028;-62
2024/01/28 09:07:31;;;;;;;7.05;2.63;;;3.80;99.90;;;;;;5059880;28;20032;-63
2024/01/28 09:09:57;;;;;;;6.20;2.17;;;4.70;99.90;;;;;;5056981;28;20449;-63
2024/01/28 09:12:24;;;;;;;7.68;3.00;;;5.60;99.90;;;;;;5057442;28;20583;-63
2024/01/28 09:14:49;;;;;;;6.00;2.15;;;6.20;99.90;;;;;;5061004;28;20752;-63
2024/01/28 09:17:15;;;;;;;10.77;2.50;;;7.00;98.40;;;;;;5056317;28;20048;-63
2024/01/28 09:19:40;;;;;;;7.10;2.35;;;7.60;96.80;;;;;;5063973;28;20040;-63
2024/01/28 09:22:06;;;;;;;7.05;2.47;;;8.10;94.90;;;;;;5062675;28;20070;-63
2024/01/28 09:24:32;;;;;;;7.63;2.60;;;8.70;91.60;;;;;;5056668;28;20032;-64
2024/01/28 09:27:01;;;;;;;7.60;2.50;;;9.30;91.40;;;;;;5056336;28;20384;-64
2024/01/28 09:29:28;;;;;;;6.55;2.40;;;9.90;87.00;;;;;;5056548;28;20021;-63
2024/01/28 09:31:56;;;;;;;7.95;2.50;;;10.50;71.70;;;;;;5060982;28;20371;-63
2024/01/28 09:34:23;;;;;;;8.57;2.30;;;10.50;75.70;;;;;;5057094;28;20492;-63
2024/01/28 09:36:49;;;;;;;9.07;2.20;;;10.70;71.90;;;;;;5059093;28;20466;-63
2024/01/28 09:39:15;;;;;;;10.20;2.22;;;10.60;69.80;;;;;;5058081;28;20021;-64
2024/01/28 09:42:00;;;;;;;8.68;2.67;;;10.60;72.00;;;;;;5052920;28;20036;-64
2024/01/28 09:44:27;;;;;;;7.47;2.20;;;10.60;75.90;;;;;;5064299;28;20060;-64
2024/01/28 09:46:53;;;;;;;6.10;2.30;;;10.80;71.30;;;;;;5055203;28;20036;-63
2024/01/28 09:49:20;;;;;;;6.30;2.00;;;10.90;70.10;;;;;;5054202;28;20032;-64
2024/01/28 09:51:46;;;;;;;6.28;1.83;;;11.00;67.50;;;;;;5056947;28;20025;-63
2024/01/28 09:54:12;;;;;;;5.55;1.70;;;11.00;67.30;;;;;;5059784;28;20040;-63
2024/01/28 09:56:41;;;;;;;6.70;2.08;;;10.80;67.90;;;;;;5056533;28;20480;-63
2024/01/28 09:59:08;;;;;;;5.50;1.63;;;10.60;68.30;;;;;;5065156;28;20399;-64
2024/01/28 10:01:34;;;;;;;6.88;1.70;;;10.70;67.40;;;;;;5060084;28;20029;-63
2024/01/28 10:04:01;;;;;;;5.80;1.80;;;11.00;67.50;;;;;;5057449;28;20495;-63
2024/01/28 10:06:27;;;;;;;5.03;1.75;;;11.20;64.60;;;;;;5055673;28;20075;-65
2024/01/28 10:08:52;;;;;;;5.78;1.70;;;11.20;65.70;;;;;;5053243;28;20479;-64
2024/01/28 10:11:18;;;;;;;5.20;1.60;;;11.40;64.70;;;;;;5059322;28;20123;-65
2024/01/28 10:13:45;;;;;;;8.10;1.80;;;11.40;62.60;;;;;;5061479;28;20563;-65
2024/01/28 10:16:11;;;;;;;6.57;1.83;;;11.40;62.20;;;;;;5060908;28;20064;-64
2024/01/28 10:18:37;;;;;;;6.25;1.52;;;11.60;64.00;;;;;;5063810;28;20404;-65
2024/01/28 10:21:02;;;;;;;5.00;1.58;;;12.20;63.40;;;;;;5058317;28;20025;-65
2024/01/28 10:23:28;;;;;;;5.95;1.70;;;12.60;62.00;;;;;;5057900;28;20021;-64
2024/01/28 10:25:58;;;;;;;5.60;1.70;;;12.90;60.20;;;;;;5058457;28;20021;-63
2024/01/28 10:28:27;;;;;;;5.50;1.87;;;13.10;59.20;;;;;;5065860;28;20035;-64
2024/01/28 10:30:53;;;;;;;6.68;1.85;;;13.20;57.30;;;;;;5058210;28;20044;-64
2024/01/28 10:33:19;;;;;;;5.25;1.90;;;13.60;58.60;;;;;;5060779;28;20403;-64
2024/01/28 10:35:45;;;;;;;6.78;2.08;;;13.80;57.40;;;;;;5052987;28;20047;-63
2024/01/28 10:38:16;;;;;;;5.50;1.67;;;14.10;56.70;;;;;;5063049;28;20025;-64
2024/01/28 10:40:44;;;;;;;5.40;1.60;;;14.40;55.70;;;;;;5063718;28;20025;-64
2024/01/28 10:43:15;;;;;;;5.28;1.40;;;14.60;53.50;;;;;;5059890;28;20029;-65
2024/01/28 10:45:44;;;;;;;3.85;1.25;;;15.10;53.50;;;;;;5067093;28;20017;-64
2024/01/28 10:48:17;;;;;;;4.30;1.25;;;15.30;52.00;;;;;;5058860;28;20071;-64
2024/01/28 10:50:43;;;;;;;4.70;1.48;;;15.20;51.20;;;;;;5060195;28;20082;-64
2024/01/28 10:53:11;;;;;;;5.85;1.65;;;15.20;52.00;;;;;;5054923;28;20096;-63
2024/01/28 10:55:38;;;;;;;6.13;1.60;;;15.30;51.10;;;;;;5056582;28;20029;-63
2024/01/28 10:58:05;;;;;;;5.80;1.27;;;15.30;53.40;;;;;;5059662;28;20518;-63
2024/01/28 11:00:31;;;;;;;6.28;1.58;;;15.40;51.60;;;;;;5059357;28;20032;-64
2024/01/28 11:02:59;;;;;;;6.20;1.65;;;15.20;51.90;;;;;;5067345;28;20021;-64
2024/01/28 11:05:28;;;;;;;4.25;1.33;;;15.40;52.40;;;;;;5062513;28;20074;-63
2024/01/28 11:07:59;;;;;;;5.63;1.65;;;15.50;50.90;;;;;;5062909;28;20078;-64
2024/01/28 11:10:29;;;;;;;5.40;1.40;;;14.60;52.20;;;;;;5059159;28;20020;-63
2024/01/28 11:12:56;;;;;;;3.50;1.20;;;14.40;53.10;;;;;;5067148;28;20040;-64
2024/01/28 11:15:23;;;;;;;4.13;1.30;;;14.20;54.20;;;;;;5055611;28;20079;-63
2024/01/28 11:17:50;;;;;;;5.20;1.50;;;13.80;55.00;;;;;;5060312;28;20874;-63
2024/01/28 11:20:27;;;;;;;5.93;1.48;;;13.80;55.70;;;;;;5056870;28;20122;-63
2024/01/28 11:23:00;;;;;;;4.20;1.25;;;13.90;54.80;;;;;;5059661;28;20044;-63
2024/01/28 11:25:28;;;;;;;5.45;2.03;;;14.00;57.20;;;;;;5053178;28;20504;-63
2024/01/28 11:28:01;;;;;;;7.25;1.60;;;13.90;54.90;;;;;;5053149;28;20036;-63
2024/01/28 11:30:28;;;;;;;3.83;1.20;;;14.30;55.10;;;;;;5061584;28;20053;-63
2024/01/28 11:33:14;;;;;;;4.60;1.50;;;14.60;55.10;;;;;;5053189;28;20067;-62
2024/01/28 11:35:43;;;;;;;6.28;1.85;;;14.60;55.00;;;;;;5057556;28;20029;-62
2024/01/28 11:38:10;;;;;;;4.93;1.40;;;14.80;54.20;;;;;;5057987;28;20023;-63
2024/01/28 11:40:38;;;;;;;3.72;1.40;;;15.40;52.50;;;;;;5061400;28;20028;-64
2024/01/28 11:43:08;;;;;;;4.97;1.30;;;15.90;52.30;;;;;;5056925;28;20092;-65
2024/01/28 11:45:37;;;;;;;4.85;1.30;;;16.00;51.10;;;;;;5058449;28;20025;-64
2024/01/28 11:48:10;;;;;;;4.25;1.40;;;15.60;50.90;;;;;;5058814;28;20048;-64
2024/01/28 11:50:36;;;;;;;5.00;1.42;;;15.80;51.90;;;;;;5057978;28;20021;-64
2024/01/28 11:53:05;;;;;;;4.43;1.52;;;16.20;51.10;;;;;;5065930;28;20384;-64
2024/01/28 11:55:31;;;;;;;4.65;1.38;;;16.60;49.90;;;;;;5063421;28;20456;-64
2024/01/28 11:57:56;;;;;;;4.28;1.30;;;16.90;49.60;;;;;;5062623;28;20064;-64
2024/01/28 12:00:25;;;;;;;5.05;1.65;;;17.00;48.40;;;;;;5058901;28;20078;-64
2024/01/28 12:02:51;;;;;;;4.32;1.30;;;17.20;49.20;;;;;;5058884;28;20365;-65
2024/01/28 12:05:17;;;;;;;5.38;1.75;;;17.80;47.40;;;;;;5062525;28;20090;-65
2024/01/28 12:07:42;;;;;;;4.28;1.50;;;17.90;48.40;;;;;;5054387;28;20044;-64
2024/01/28 12:10:12;;;;;;;4.50;1.40;;;18.10;46.70;;;;;;5057760;28;20472;-64
2024/01/28 12:12:42;;;;;;;;;;;18.40;46.60;;;;;;5062756;28;20048;-66
2024/01/28 12:15:09;;;;;;;5.35;1.48;;;18.40;46.40;;;;;;5055361;28;19915;-64
2024/01/28 12:17:36;;;;;;;5.10;1.48;;;18.10;47.10;;;;;;5054059;28;20036;-64
2024/01/28 12:20:03;;;;;;;7.07;1.40;;;18.10;46.60;;;;;;5058788;28;20021;-64
2024/01/28 12:22:38;;;;;;;4.78;1.30;;;18.70;46.20;;;;;;5056283;28;20028;-63
2024/01/28 12:25:11;;;;;;;4.60;1.40;;;18.60;45.60;;;;;;5057471;28;20091;-63
2024/01/28 12:27:40;;;;;;;4.53;1.40;;;18.30;45.70;;;;;;5054416;28;20033;-63
2024/01/28 12:30:07;;;;;;;6.10;1.30;;;18.30;46.40;;;;;;5062075;28;20078;-63
2024/01/28 12:32:33;;;;;;;4.55;1.20;;;18.50;45.90;;;;;;5057794;28;20826;-63
2024/01/28 12:35:03;;;;;;;5.00;1.30;;;18.40;46.30;;;;;;5064926;28;20024;-63
2024/01/28 12:37:33;;;;;;;4.88;1.33;;;18.10;45.40;;;;;;5060288;28;20036;-63
2024/01/28 12:39:59;;;;;;;5.35;1.25;;;18.30;45.90;;;;;;5057617;28;20032;-63